Astoria, OR

4:34 AM PDT on August 30, 2014 (GMT -0700)
The Slope of South | Change Station
CLOSE
Current Station
Personal Weather Station
Location: Astoria, OR
Elevation: 213 ft
Nearby Weather Stations

Elev 213 ft 46.18 °N, 123.84 °W | Updated 9 minutes ago

Overcast
Overcast
59.0 °F
Feels Like 59.0 °F
N
0.0
Wind Variable Wind from East

Today
High -- | Low -- °F
--% Chance of Precip.
Yesterday
High -- | Low -- °F
Precip. -- in
6:33 AM 7:57 PM
Waxing Crescent, 21% visible
Pressure 29.92 in
Visibility 10.0 miles
Clouds Mostly Cloudy 4400 ft
Overcast 5500 ft
Dew Point 59 °F
Humidity 99%
Rainfall 0.00 in
Snow Depth Not available.
UV 0 out of 12
Pollen 2.80 out of 12
Air Quality Not available.
Flu Activity Not available.
METAR KAST 301055Z AUTO 13004KT 10SM BKN044 OVC055 16/14 A2992 RMK AO2 SLP130 T01560139

More Conditions Fewer Conditions

Pressure 29.92 in
Visibility 10.0 miles
Clouds Mostly Cloudy 4400 ft
Overcast 5500 ft
Dew Point 59 °F
Humidity 99%
Rainfall 0.00 in
Snow Depth Not available.
UV 0 out of 12
Pollen 2.80 out of 12
Air Quality Not available.
Flu Activity Not available.
METAR KAST 301055Z AUTO 13004KT 10SM BKN044 OVC055 16/14 A2992 RMK AO2 SLP130 T01560139

More Conditions Fewer Conditions

10-Day Weather Forecast

Almanac

Astronomy

Aug. 30, 2014 Rise Set
Actual Time 6:33 AM PDT 7:57 PM PDT
Civil Twilight 6:02 AM PDT 8:28 PM PDT
Nautical Twilight 5:24 AM PDT 9:06 PM PDT
Astronomical Twilight 4:44 AM PDT 9:46 PM PDT
Moon 11:44 AM PDT 10:16 PM PDT
Length of Visible Light 14h 26m
Length of Day
13h 23m
Tomorrow will be 3m 8s shorter.
Waxing Crescent, 21% of the Moon is Illuminated
Today
Waxing Crescent
Sep 2
First Quarter
Sep 8
Full
Sep 15
Last Quarter
Sep 24
New

Today's Extremes

State Highs State Lows

Community

WunderPhotos

Upload Photos

1,748,492 photos uploaded!

WunderBlogs® & News

By Dr. Jeff Masters
Director of Meteorology, Weather Underground
By Kari Strenfel
Meteorologist, Weather Underground
By Christopher C. Burt
Weather Historian, Weather Underground
August 30, 2014
August 30, 2014
August 30, 2014

Nearby

Snow Depth

Station Depth Elevation
Seine Creek 0 in 2000 ft
North Fork 1 in 3120 ft
Blazed Alder 0 in 3650 ft
Greenpoint 1 in 3200 ft
Red Hill 0 in 4400 ft

Earthquake Activity

City Distance Mag. Time & Date
No recent earthquake activity has been reported nearby.
Minimum magnitude displayed is 2.5.

Coastal Water Temperatures

Place Temperature
Astoria, OR 71.1 °F
Westport, WA 57.0 °F

Nearby Weather Stations